Slobozia, Romania
Current Conditions -  °F | °C
As of 1:00 AM on Monday 24 Nov 2014 (Local Time) from LRBS Reporting Station
Haze Haze  
Wind Chill: 39°   Ceiling: 1400
Heat Index: 39°   Visibility: 2.5mi
Dew Point: 39°   Wind: 2mph
Humidity: 100%   Direction: 70°ENE
Pressure: 30.45"   Gusts: NA
Location:  44.57°N, 27.38°E
Report Text: LRBS 232200Z 07002KT 4000 BR OVC014 04/04 Q1031 R07/19//95NOSIG
Loading
Personal Weather Stations






























Interactive Weather Map New forecast layout! Learn more

10-Day Weather Forecast

Advertisements
Track Severe Weather on mobile